MV Moseldijk — PBWK — position and weather

sailwx.info

Track history (hours):
 
Tides and Currents Weather Stations Pressure Air Temp Water Temp Dewpoint Dewpoint Depression Visibility Wind Speed Wind Dir Waves Ship Positions

MV Moseldijk

Last reported at 2015-Apr-19 13:06 UTC. Time now 2015-Apr-19 22:57 UTC.
Position N 38°49' E 004°02'.

Length 90 m; draft 6.3 m.

Type: Cargo ship. MMSI: 246644000.

Date/timePositionNaut miles runAvg speedWind from/ knotsBaromVisibWave heightAir tempDewpointWater temp
2015-Apr-19 13:06N 38°49' E 004°02'610.8
2015-Apr-19 12:32N 38°50' E 003°55'2210.9
2015-Apr-19 10:33N 38°55' E 003°28'1110.9
2015-Apr-19 09:33N 38°58' E 003°14'1111.1
2015-Apr-19 08:33N 39°01' E 003°00'1111.0
2015-Apr-19 07:33N 39°04' E 002°47'1110.9
2015-Apr-19 06:33N 39°08' E 002°34'1111.1
2015-Apr-19 05:33N 39°12' E 002°20'1111.3
2015-Apr-19 04:33N 39°17' E 002°07'1111.0
2015-Apr-19 03:33N 39°22' E 001°54'1111.3
2015-Apr-19 02:33N 39°25' E 001°41'  
2015-Apr-15 01:19N 38°08' W 000°01'7 7.9
2015-Apr-15 00:24N 38°03' W 000°06'7 8.0
2015-Apr-14 23:33N 37°57' W 000°11'8 8.3
2015-Apr-14 22:33N 37°50' W 000°16'7 7.1
2015-Apr-14 21:33N 37°44' W 000°21'8 7.6
2015-Apr-14 20:33N 37°38' W 000°27'8 7.7
2015-Apr-14 19:33N 37°32' W 000°33'8 7.7
2015-Apr-14 18:32N 37°26' W 000°40'8 8.4
2015-Apr-14 17:33N 37°21' W 000°48'8 8.4
2015-Apr-14 16:33N 37°15' W 000°55'223 7.3
2015-Apr-13 10:06N 35°55' W 005°15'4 6.8
2015-Apr-13 09:33N 35°54' W 005°19'0 0.0
2015-Apr-13 08:32N 35°54' W 005°19'0 0.0
2015-Apr-13 07:32N 35°54' W 005°19'0 0.0
2015-Apr-13 06:32N 35°54' W 005°19'1 1.3
2015-Apr-13 05:33N 35°55' W 005°18'5 4.7
2015-Apr-13 04:33N 35°58' W 005°23'230 7.8
2015-Apr-11 23:09N 37°31' W 009°45'6 9.3
2015-Apr-11 22:33N 37°36' W 009°47'9 9.0
2015-Apr-11 21:33N 37°45' W 009°49'8 8.4
2015-Apr-11 20:33N 37°53' W 009°52'9 8.7
2015-Apr-11 19:33N 38°02' W 009°54'9 9.1
2015-Apr-11 18:33N 38°10' W 009°56'12 8.8
2015-Apr-11 17:11N 38°22' W 010°01'9 9.1
2015-Apr-11 16:11N 38°31' W 010°03'6 9.1
2015-Apr-11 15:33N 38°36' W 010°05'9 9.0
2015-Apr-11 14:32N 38°46' W 010°06'9 9.1
2015-Apr-11 13:32N 38°55' W 010°07'10 9.8
2015-Apr-11 12:33N 39°04' W 010°06'  
Track history (hours):
 
Tides and Currents Weather Stations Pressure Air Temp Water Temp Dewpoint Dewpoint Depression Visibility Wind Speed Wind Dir Waves Ship Positions

MV Moseldijk

Last reported at 2015-Apr-19 13:06 UTC. Time now 2015-Apr-19 22:57 UTC.
Position N 38°49' E 004°02'.

Length 90 m; draft 6.3 m.

Type: Cargo ship. MMSI: 246644000.

Date/timePositionNaut miles runAvg speedWind from/ knotsBaromVisibWave heightAir tempDewpointWater temp
2015-Apr-19 13:06N 38°49' E 004°02'610.8
2015-Apr-19 12:32N 38°50' E 003°55'2210.9
2015-Apr-19 10:33N 38°55' E 003°28'1110.9
2015-Apr-19 09:33N 38°58' E 003°14'1111.1
2015-Apr-19 08:33N 39°01' E 003°00'1111.0
2015-Apr-19 07:33N 39°04' E 002°47'1110.9
2015-Apr-19 06:33N 39°08' E 002°34'1111.1
2015-Apr-19 05:33N 39°12' E 002°20'1111.3
2015-Apr-19 04:33N 39°17' E 002°07'1111.0
2015-Apr-19 03:33N 39°22' E 001°54'1111.3
2015-Apr-19 02:33N 39°25' E 001°41'  
2015-Apr-15 01:19N 38°08' W 000°01'7 7.9
2015-Apr-15 00:24N 38°03' W 000°06'7 8.0
2015-Apr-14 23:33N 37°57' W 000°11'8 8.3
2015-Apr-14 22:33N 37°50' W 000°16'7 7.1
2015-Apr-14 21:33N 37°44' W 000°21'8 7.6
2015-Apr-14 20:33N 37°38' W 000°27'8 7.7
2015-Apr-14 19:33N 37°32' W 000°33'8 7.7
2015-Apr-14 18:32N 37°26' W 000°40'8 8.4
2015-Apr-14 17:33N 37°21' W 000°48'8 8.4
2015-Apr-14 16:33N 37°15' W 000°55'223 7.3
2015-Apr-13 10:06N 35°55' W 005°15'4 6.8
2015-Apr-13 09:33N 35°54' W 005°19'0 0.0
2015-Apr-13 08:32N 35°54' W 005°19'0 0.0
2015-Apr-13 07:32N 35°54' W 005°19'0 0.0
2015-Apr-13 06:32N 35°54' W 005°19'1 1.3
2015-Apr-13 05:33N 35°55' W 005°18'5 4.7
2015-Apr-13 04:33N 35°58' W 005°23'230 7.8
2015-Apr-11 23:09N 37°31' W 009°45'6 9.3
2015-Apr-11 22:33N 37°36' W 009°47'9 9.0
2015-Apr-11 21:33N 37°45' W 009°49'8 8.4
2015-Apr-11 20:33N 37°53' W 009°52'9 8.7
2015-Apr-11 19:33N 38°02' W 009°54'9 9.1
2015-Apr-11 18:33N 38°10' W 009°56'12 8.8
2015-Apr-11 17:11N 38°22' W 010°01'9 9.1
2015-Apr-11 16:11N 38°31' W 010°03'6 9.1
2015-Apr-11 15:33N 38°36' W 010°05'9 9.0
2015-Apr-11 14:32N 38°46' W 010°06'9 9.1
2015-Apr-11 13:32N 38°55' W 010°07'10 9.8
2015-Apr-11 12:33N 39°04' W 010°06'  

Dump ship's entire track history